Time;durP1;ratioP1;P1;durP2;ratioP2;P2;SDS_P1;SDS_P2;PMS_P1;PMS_P2;Temp;Humidity;BMP_temperature;BMP_pressure;BME280_temperature;BME280_humidity;BME280_pressure;Samples;Min_cycle;Max_cycle;Signal;HPM_P1;HPM_P2
2022/07/04 00:00:11;;;;;;;9.57;2.28;;;16.90;99.90;;;;;;5054187;28;20044;-74
2022/07/04 00:02:41;;;;;;;6.75;2.42;;;17.20;99.90;;;;;;5037377;28;20483;-74
2022/07/04 00:05:10;;;;;;;5.80;2.15;;;17.20;99.90;;;;;;5054734;28;20075;-74
2022/07/04 00:07:46;;;;;;;7.38;2.63;;;17.00;99.90;;;;;;5056698;28;20523;-75
2022/07/04 00:10:15;;;;;;;7.40;2.58;;;17.20;99.90;;;;;;5047190;28;20033;-74
2022/07/04 00:12:41;;;;;;;8.88;2.45;;;17.30;99.90;;;;;;5053737;28;20355;-74
2022/07/04 00:15:09;;;;;;;6.93;3.00;;;17.30;99.90;;;;;;5054199;28;20090;-74
2022/07/04 00:17:34;;;;;;;8.18;2.78;;;17.10;99.90;;;;;;5053731;28;20029;-74
2022/07/04 00:20:01;;;;;;;10.68;3.00;;;17.00;99.90;;;;;;5054108;28;20438;-75
2022/07/04 00:22:27;;;;;;;6.72;2.60;;;17.00;99.90;;;;;;5053541;28;20473;-74
2022/07/04 00:24:52;;;;;;;6.95;2.70;;;16.90;99.90;;;;;;5053659;28;20029;-75
2022/07/04 00:27:18;;;;;;;8.25;2.55;;;16.90;99.90;;;;;;5053487;28;20473;-73
2022/07/04 00:29:44;;;;;;;5.82;2.75;;;16.90;99.90;;;;;;5035659;28;20033;-74
2022/07/04 00:32:10;;;;;;;10.20;3.20;;;16.70;99.90;;;;;;5035727;28;20022;-74
2022/07/04 00:34:35;;;;;;;6.60;3.10;;;16.80;99.90;;;;;;5053523;28;20482;-74
2022/07/04 00:37:02;;;;;;;8.48;3.35;;;16.80;99.90;;;;;;5035887;28;20029;-76
2022/07/04 00:39:29;;;;;;;7.90;3.05;;;16.80;99.90;;;;;;5053154;28;20021;-75
2022/07/04 00:41:54;;;;;;;6.65;2.72;;;16.80;99.90;;;;;;5053264;28;20393;-75
2022/07/04 00:44:20;;;;;;;10.00;3.13;;;16.90;99.90;;;;;;5053670;28;20021;-76
2022/07/04 00:46:46;;;;;;;8.45;3.97;;;16.80;99.90;;;;;;5053162;28;20444;-76
2022/07/04 00:49:16;;;;;;;12.15;3.40;;;16.80;99.90;;;;;;5053153;28;20021;-76
2022/07/04 00:51:42;;;;;;;7.03;2.85;;;16.80;99.90;;;;;;5053137;28;20059;-75
2022/07/04 00:54:11;;;;;;;8.45;2.90;;;16.80;99.90;;;;;;5053020;28;20021;-76
2022/07/04 00:56:39;;;;;;;6.25;2.40;;;16.70;99.90;;;;;;5058203;28;20476;-75
2022/07/04 00:59:05;;;;;;;8.95;2.67;;;16.30;99.90;;;;;;5056535;28;20024;-76
2022/07/04 01:01:31;;;;;;;6.45;2.65;;;16.30;99.90;;;;;;5067080;28;20013;-76
2022/07/04 01:03:57;;;;;;;7.65;2.90;;;16.30;99.90;;;;;;5038883;28;20025;-75
2022/07/04 01:06:23;;;;;;;7.07;2.58;;;16.20;99.90;;;;;;5063292;28;20089;-76
2022/07/04 01:08:48;;;;;;;12.63;2.40;;;16.00;99.90;;;;;;5052307;28;20103;-76
2022/07/04 01:11:15;;;;;;;5.22;2.40;;;15.80;99.90;;;;;;5053014;28;20041;-76
2022/07/04 01:13:42;;;;;;;7.97;2.80;;;15.90;99.90;;;;;;5066547;28;20024;-75
2022/07/04 01:16:09;;;;;;;6.07;2.03;;;16.10;99.90;;;;;;5035105;28;20021;-75
2022/07/04 01:18:36;;;;;;;7.32;2.40;;;15.60;99.90;;;;;;5052427;28;20033;-76
2022/07/04 01:21:01;;;;;;;6.72;2.47;;;15.30;99.90;;;;;;5052772;28;20025;-76
2022/07/04 01:23:27;;;;;;;10.95;2.75;;;15.50;99.90;;;;;;5052472;28;20028;-75
2022/07/04 01:25:55;;;;;;;10.88;2.50;;;15.60;99.90;;;;;;5052812;28;20389;-75
2022/07/04 01:28:21;;;;;;;9.00;2.55;;;15.90;99.90;;;;;;5052767;28;20100;-77
2022/07/04 01:30:48;;;;;;;4.95;2.38;;;15.80;99.90;;;;;;5048950;28;20028;-76
2022/07/04 01:33:14;;;;;;;5.60;2.17;;;15.70;99.90;;;;;;5066788;28;20492;-76
2022/07/04 01:35:40;;;;;;;6.50;2.70;;;15.80;99.90;;;;;;5052688;28;20021;-76
2022/07/04 01:38:07;;;;;;;5.05;1.95;;;15.90;99.90;;;;;;5052703;28;20024;-75
2022/07/04 01:40:33;;;;;;;12.25;3.08;;;16.20;99.90;;;;;;5052531;28;20037;-75
2022/07/04 01:42:58;;;;;;;7.18;2.58;;;16.30;99.90;;;;;;5052422;28;20104;-75
2022/07/04 01:45:24;;;;;;;6.80;2.90;;;16.40;99.90;;;;;;5034842;28;20033;-76
2022/07/04 01:47:50;;;;;;;4.88;2.42;;;16.40;99.90;;;;;;5034286;28;20021;-75
2022/07/04 01:50:16;;;;;;;4.35;2.15;;;16.10;99.90;;;;;;5052462;28;20037;-75
2022/07/04 01:52:43;;;;;;;5.72;2.30;;;15.70;99.90;;;;;;5052154;28;20040;-76
2022/07/04 01:55:10;;;;;;;5.35;1.92;;;15.70;99.90;;;;;;5052387;28;20021;-76
2022/07/04 01:57:36;;;;;;;9.25;2.38;;;15.60;99.90;;;;;;5052564;28;20473;-75
2022/07/04 02:02:49;;;;;;;3.55;1.85;;;15.70;99.90;;;;;;5052337;28;20033;-75
2022/07/04 02:05:15;;;;;;;8.35;2.95;;;16.00;99.90;;;;;;5066243;28;20031;-75
2022/07/04 02:07:40;;;;;;;5.18;1.92;;;16.00;99.90;;;;;;5052238;28;20048;-76
2022/07/04 02:10:06;;;;;;;5.00;2.03;;;15.90;99.90;;;;;;5051904;28;20462;-76
2022/07/04 02:15:16;;;;;;;8.80;1.90;;;15.60;99.90;;;;;;5052161;28;20017;-75
2022/07/04 02:17:42;;;;;;;8.82;2.83;;;15.50;99.90;;;;;;5052072;28;20044;-75
2022/07/04 02:20:08;;;;;;;4.57;2.10;;;15.50;99.90;;;;;;5052544;28;20112;-75
2022/07/04 02:22:34;;;;;;;5.15;2.30;;;15.30;99.90;;;;;;5056072;28;20017;-76
2022/07/04 02:25:00;;;;;;;6.72;2.38;;;15.20;99.90;;;;;;5056005;28;20040;-76
2022/07/04 02:27:25;;;;;;;5.13;2.00;;;15.40;99.90;;;;;;5056065;28;20020;-76
2022/07/04 02:29:51;;;;;;;7.32;2.30;;;15.50;99.90;;;;;;5055783;28;20377;-76
2022/07/04 02:32:17;;;;;;;5.22;2.28;;;15.60;99.90;;;;;;5055761;28;20068;-76
2022/07/04 02:34:42;;;;;;;7.82;2.38;;;15.50;99.90;;;;;;5055544;28;20053;-75
2022/07/04 02:37:09;;;;;;;7.05;3.00;;;15.30;99.90;;;;;;5056033;28;20075;-75
2022/07/04 02:39:35;;;;;;;6.80;2.50;;;15.40;99.90;;;;;;5055547;28;20032;-74
2022/07/04 02:42:01;;;;;;;2.75;2.15;;;15.00;99.90;;;;;;5055840;28;20017;-76
2022/07/04 02:44:27;;;;;;;6.22;2.25;;;15.00;99.90;;;;;;5055599;28;20029;-75
2022/07/04 02:46:53;;;;;;;8.55;2.50;;;15.30;99.90;;;;;;5055527;28;20017;-75
2022/07/04 02:49:19;;;;;;;8.10;2.50;;;15.20;99.90;;;;;;5055018;28;20047;-76
2022/07/04 02:51:45;;;;;;;4.70;2.33;;;15.30;99.90;;;;;;5055429;28;20048;-75
2022/07/04 02:54:10;;;;;;;7.10;2.67;;;15.10;99.90;;;;;;5055745;28;20082;-76
2022/07/04 02:56:36;;;;;;;5.90;2.67;;;15.20;99.90;;;;;;5055238;28;20458;-76
2022/07/04 02:59:02;;;;;;;5.88;2.47;;;15.30;99.90;;;;;;5055525;28;20029;-75
2022/07/04 03:01:28;;;;;;;8.02;2.80;;;15.40;99.90;;;;;;5055215;28;20477;-75
2022/07/04 03:03:54;;;;;;;8.43;2.72;;;15.20;99.90;;;;;;5060581;28;20016;-75
2022/07/04 03:06:19;;;;;;;16.55;4.07;;;15.30;99.90;;;;;;5063691;28;20025;-76
2022/07/04 03:08:45;;;;;;;6.63;2.95;;;15.20;99.90;;;;;;5037221;28;20021;-74
2022/07/04 03:11:11;;;;;;;9.65;3.75;;;15.10;99.90;;;;;;5055082;28;20040;-75
2022/07/04 03:13:38;;;;;;;8.95;2.90;;;15.10;99.90;;;;;;5055113;28;20100;-75
2022/07/04 03:16:04;;;;;;;9.50;3.45;;;15.20;99.90;;;;;;5055057;28;20064;-75
2022/07/04 03:18:30;;;;;;;12.60;3.40;;;15.20;99.90;;;;;;5036876;28;20063;-75
2022/07/04 03:20:56;;;;;;;9.82;3.25;;;15.20;99.90;;;;;;5037029;28;20107;-76
2022/07/04 03:23:22;;;;;;;7.15;3.17;;;15.10;99.90;;;;;;5055126;28;20031;-75
2022/07/04 03:25:47;;;;;;;8.35;3.40;;;15.00;99.90;;;;;;5054717;28;20384;-75
2022/07/04 03:28:13;;;;;;;11.85;2.85;;;14.70;99.90;;;;;;5037103;28;20025;-75
2022/07/04 03:30:39;;;;;;;8.85;3.42;;;14.80;99.90;;;;;;5054496;28;20465;-76
2022/07/04 03:33:05;;;;;;;8.48;3.25;;;14.70;99.90;;;;;;5053310;28;20086;-75
2022/07/04 03:35:31;;;;;;;8.90;3.13;;;14.70;99.90;;;;;;5054517;28;20024;-75
2022/07/04 03:37:56;;;;;;;10.32;3.55;;;14.80;99.90;;;;;;5054573;28;20584;-75
2022/07/04 03:46:45;;;;;;;5.70;3.10;;;14.90;99.90;;;;;;5070704;22;20075;-74
2022/07/04 03:49:10;;;;;;;13.63;3.78;;;14.80;99.90;;;;;;5056361;28;20016;-74
2022/07/04 03:54:11;;;;;;;13.05;3.85;;;14.60;99.90;;;;;;5186042;22;20388;-71
2022/07/04 03:56:37;;;;;;;10.00;4.30;;;14.40;99.90;;;;;;5099864;22;20089;-65
2022/07/04 04:02:34;;;;;;;7.43;3.22;;;14.40;99.90;;;;;;5948506;22;20061;-66
2022/07/04 04:08:31;;;;;;;12.63;3.70;;;14.30;99.90;;;;;;5884725;22;20087;-65
2022/07/04 04:11:15;;;;;;;7.10;3.80;;;14.50;99.90;;;;;;5103067;22;20122;-76
2022/07/04 04:13:41;;;;;;;8.52;3.75;;;14.20;99.90;;;;;;5056070;28;20111;-76
2022/07/04 04:16:08;;;;;;;12.15;3.75;;;14.20;99.90;;;;;;5074036;28;20032;-75
2022/07/04 04:18:34;;;;;;;7.30;3.40;;;14.30;99.90;;;;;;5073926;28;20024;-76
2022/07/04 04:20:59;;;;;;;8.50;4.03;;;14.20;99.90;;;;;;5073830;28;20060;-76
2022/07/04 04:23:25;;;;;;;10.00;3.88;;;14.00;99.90;;;;;;5073815;28;20040;-76
2022/07/04 04:25:51;;;;;;;6.55;3.40;;;14.10;99.90;;;;;;5073644;28;20078;-75
2022/07/04 04:28:17;;;;;;;9.60;4.22;;;14.20;99.90;;;;;;5073761;28;20548;-75
2022/07/04 04:30:43;;;;;;;9.60;3.85;;;14.30;99.90;;;;;;5073695;28;20365;-75
2022/07/04 04:33:08;;;;;;;11.35;4.47;;;14.30;99.90;;;;;;5060486;28;20472;-76
2022/07/04 04:35:34;;;;;;;7.22;3.10;;;14.30;99.90;;;;;;5072896;28;20414;-76
2022/07/04 04:38:00;;;;;;;11.68;3.78;;;14.20;99.90;;;;;;5073843;28;20044;-76
2022/07/04 04:40:25;;;;;;;12.18;3.80;;;14.30;99.90;;;;;;5073262;28;20025;-76
2022/07/04 04:42:51;;;;;;;8.65;3.45;;;14.30;99.90;;;;;;5055363;28;20118;-76
2022/07/04 04:45:17;;;;;;;7.63;3.72;;;14.30;99.90;;;;;;5073045;28;20036;-76
2022/07/04 04:47:43;;;;;;;10.20;3.83;;;14.40;99.90;;;;;;5080661;28;20099;-75
2022/07/04 04:50:11;;;;;;;9.80;3.83;;;14.50;99.90;;;;;;5073383;28;20021;-75
2022/07/04 04:52:41;;;;;;;12.48;4.05;;;14.50;99.90;;;;;;5073403;28;20028;-76
2022/07/04 04:55:07;;;;;;;17.23;4.90;;;14.80;99.90;;;;;;5072938;28;20031;-75
2022/07/04 04:57:34;;;;;;;12.63;3.65;;;14.90;99.90;;;;;;5055203;28;20111;-76
2022/07/04 05:00:00;;;;;;;10.25;4.35;;;14.80;99.90;;;;;;5073211;28;20021;-76
2022/07/04 05:02:26;;;;;;;11.07;3.42;;;14.80;99.90;;;;;;5072998;28;20044;-76
2022/07/04 05:04:53;;;;;;;12.98;4.10;;;15.00;99.90;;;;;;5072991;28;20116;-76
2022/07/04 05:07:19;;;;;;;15.50;5.20;;;15.00;99.90;;;;;;5073187;28;20029;-75
2022/07/04 05:09:44;;;;;;;17.00;5.47;;;15.10;99.90;;;;;;5053743;28;20063;-76
2022/07/04 05:12:11;;;;;;;16.35;6.00;;;15.10;99.90;;;;;;5042894;28;20029;-75
2022/07/04 05:14:36;;;;;;;17.80;6.40;;;15.20;99.90;;;;;;5035056;28;20017;-76
2022/07/04 05:17:02;;;;;;;22.48;6.78;;;15.50;99.90;;;;;;5052993;28;20531;-76
2022/07/04 05:19:29;;;;;;;27.02;8.05;;;15.70;99.90;;;;;;5053054;28;20123;-76
2022/07/04 05:21:55;;;;;;;18.95;7.60;;;15.70;99.90;;;;;;5035241;28;20064;-76
2022/07/04 05:24:20;;;;;;;18.85;7.38;;;15.70;99.90;;;;;;5034766;28;20059;-76
2022/07/04 05:26:46;;;;;;;21.00;6.32;;;15.70;99.90;;;;;;5052660;28;20496;-75
2022/07/04 05:29:12;;;;;;;27.40;6.95;;;15.60;99.90;;;;;;5052925;28;20021;-76
2022/07/04 05:31:38;;;;;;;22.23;7.32;;;15.90;99.90;;;;;;5052564;28;20064;-76
2022/07/04 05:34:04;;;;;;;24.05;7.28;;;16.00;99.90;;;;;;5052982;28;20113;-75
2022/07/04 05:36:30;;;;;;;18.05;7.00;;;16.10;99.90;;;;;;5052016;28;20024;-76
2022/07/04 05:38:57;;;;;;;20.35;6.95;;;15.90;99.90;;;;;;5052713;28;20108;-76
2022/07/04 05:41:23;;;;;;;30.42;7.25;;;16.00;99.90;;;;;;5052484;28;20040;-75
2022/07/04 05:43:49;;;;;;;24.15;7.13;;;15.90;99.90;;;;;;5052457;28;20029;-76
2022/07/04 05:46:15;;;;;;;32.35;7.72;;;16.30;99.90;;;;;;5034552;28;20108;-76
2022/07/04 05:48:40;;;;;;;31.17;9.52;;;16.20;99.90;;;;;;5052440;28;20039;-76
2022/07/04 05:51:07;;;;;;;24.02;9.45;;;16.30;99.90;;;;;;5034518;28;20029;-76
2022/07/04 05:53:33;;;;;;;27.10;7.97;;;15.90;99.90;;;;;;5052448;28;20029;-75
2022/07/04 05:55:59;;;;;;;24.67;8.00;;;15.60;99.90;;;;;;5054866;28;20542;-75
2022/07/04 05:58:24;;;;;;;31.40;10.20;;;15.90;99.90;;;;;;5056652;28;20053;-75
2022/07/04 06:00:50;;;;;;;33.20;9.63;;;16.30;99.90;;;;;;5056416;28;20425;-76
2022/07/04 06:03:16;;;;;;;32.78;9.75;;;16.60;99.90;;;;;;5056518;28;20036;-76
2022/07/04 06:05:41;;;;;;;32.63;10.45;;;16.20;99.90;;;;;;5070270;28;20021;-75
2022/07/04 06:08:07;;;;;;;34.20;9.60;;;16.20;99.90;;;;;;5056460;28;20036;-75
2022/07/04 06:10:33;;;;;;;28.40;10.90;;;16.30;99.90;;;;;;5057423;28;20059;-76
2022/07/04 06:12:59;;;;;;;30.88;11.07;;;16.20;99.90;;;;;;5068716;28;20070;-76
2022/07/04 06:15:25;;;;;;;38.75;12.40;;;16.00;99.90;;;;;;5038569;28;20473;-75
2022/07/04 06:17:51;;;;;;;44.45;13.88;;;16.00;99.90;;;;;;5038495;28;20025;-75
2022/07/04 06:20:17;;;;;;;30.10;11.32;;;16.10;99.90;;;;;;5055797;28;20032;-75
2022/07/04 06:22:45;;;;;;;49.05;14.38;;;15.90;99.90;;;;;;5056153;28;20475;-76
2022/07/04 06:25:16;;;;;;;59.00;16.52;;;16.10;99.90;;;;;;5056380;28;20033;-75
2022/07/04 06:27:44;;;;;;;47.28;14.52;;;16.50;99.90;;;;;;5056169;28;20028;-75
2022/07/04 06:30:10;;;;;;;47.30;14.05;;;16.50;99.90;;;;;;5038039;28;20032;-75
2022/07/04 06:32:46;;;;;;;50.53;15.93;;;16.40;99.90;;;;;;5021682;28;20108;-76
2022/07/04 06:37:58;;;;;;;50.10;15.63;;;16.50;99.90;;;;;;5055804;28;20029;-76
2022/07/04 06:40:24;;;;;;;55.70;19.08;;;16.50;99.90;;;;;;5055450;28;20027;-75
2022/07/04 06:42:50;;;;;;;46.42;15.07;;;16.20;99.90;;;;;;5055742;28;20120;-75
2022/07/04 06:45:16;;;;;;;52.35;17.25;;;16.50;99.90;;;;;;5055771;28;20017;-73
2022/07/04 06:47:43;;;;;;;39.78;17.08;;;16.70;99.90;;;;;;5055534;28;20119;-74
2022/07/04 06:50:09;;;;;;;54.95;18.88;;;16.60;99.90;;;;;;5037262;28;20059;-74
2022/07/04 06:52:35;;;;;;;51.38;17.33;;;16.50;99.90;;;;;;5055583;28;20069;-74
2022/07/04 06:55:00;;;;;;;57.35;19.42;;;16.60;99.90;;;;;;5055605;28;20037;-74
2022/07/04 06:57:26;;;;;;;52.00;20.73;;;16.50;99.90;;;;;;5055630;28;20027;-75
2022/07/04 06:59:52;;;;;;;47.17;20.08;;;16.90;99.90;;;;;;5055334;28;20033;-74
2022/07/04 07:02:18;;;;;;;57.63;19.15;;;16.80;99.90;;;;;;5055384;28;20017;-75
2022/07/04 07:04:44;;;;;;;41.25;17.95;;;16.80;99.90;;;;;;5020694;28;20056;-74
2022/07/04 07:07:09;;;;;;;45.42;18.77;;;16.60;99.90;;;;;;5055124;28;20029;-74
2022/07/04 07:09:35;;;;;;;45.17;17.77;;;16.90;99.90;;;;;;5054875;28;20060;-74
2022/07/04 07:12:01;;;;;;;37.03;15.40;;;17.30;99.90;;;;;;5055201;28;20086;-74
2022/07/04 07:14:27;;;;;;;36.15;15.88;;;17.60;99.90;;;;;;5054909;28;20020;-75
2022/07/04 07:16:53;;;;;;;38.90;16.58;;;17.60;99.90;;;;;;5037502;28;20033;-74
2022/07/04 07:19:18;;;;;;;44.67;17.77;;;17.00;99.90;;;;;;5054729;28;20059;-74
2022/07/04 07:21:45;;;;;;;35.78;15.35;;;17.00;99.90;;;;;;5054850;28;20025;-74
2022/07/04 07:24:10;;;;;;;40.47;17.27;;;17.30;99.90;;;;;;5055052;28;20029;-75
2022/07/04 07:26:36;;;;;;;53.78;18.30;;;17.40;99.90;;;;;;5037074;28;20029;-74
2022/07/04 07:29:02;;;;;;;40.67;15.85;;;17.60;99.90;;;;;;5037006;28;20039;-74
2022/07/04 07:31:28;;;;;;;36.85;15.88;;;17.60;99.90;;;;;;5054693;28;20091;-74
2022/07/04 07:33:54;;;;;;;37.95;15.10;;;17.40;99.90;;;;;;5036755;28;20444;-75
2022/07/04 07:36:20;;;;;;;39.03;15.38;;;17.60;99.90;;;;;;5037068;28;20086;-75
2022/07/04 07:38:46;;;;;;;33.35;14.30;;;17.70;99.90;;;;;;5054581;28;20017;-74
2022/07/04 07:41:12;;;;;;;30.45;12.98;;;17.70;99.90;;;;;;5036674;28;20021;-75
2022/07/04 07:43:38;;;;;;;29.35;12.75;;;17.90;99.90;;;;;;5054497;28;20048;-74
2022/07/04 07:46:08;;;;;;;34.25;13.77;;;18.20;99.90;;;;;;5054664;28;20071;-74
2022/07/04 07:48:34;;;;;;;34.63;14.82;;;18.20;99.90;;;;;;5050426;28;20036;-74
2022/07/04 07:51:00;;;;;;;30.30;13.13;;;18.20;99.90;;;;;;5054294;28;20044;-74
2022/07/04 07:53:26;;;;;;;36.40;13.68;;;18.50;99.90;;;;;;5054439;28;20021;-74
2022/07/04 07:55:52;;;;;;;34.83;13.63;;;18.70;99.90;;;;;;5054526;28;20021;-74
2022/07/04 07:58:19;;;;;;;29.35;13.20;;;19.20;99.90;;;;;;5054528;28;20431;-74
2022/07/04 08:00:46;;;;;;;31.08;12.45;;;19.10;99.90;;;;;;5054221;28;20555;-74
2022/07/04 08:05:55;;;;;;;27.00;12.13;;;19.00;99.90;;;;;;5054027;28;20479;-73
2022/07/04 08:08:23;;;;;;;32.30;11.70;;;18.50;99.90;;;;;;5054161;28;20025;-74
2022/07/04 08:10:49;;;;;;;31.15;11.57;;;18.70;99.90;;;;;;5035815;28;20068;-74
2022/07/04 08:13:15;;;;;;;27.27;10.75;;;18.50;99.90;;;;;;5036346;28;20025;-74
2022/07/04 08:15:41;;;;;;;26.98;11.43;;;18.80;99.90;;;;;;5053835;28;20025;-75
2022/07/04 08:18:07;;;;;;;23.23;10.27;;;19.20;99.90;;;;;;5035343;28;20078;-74
2022/07/04 08:20:33;;;;;;;27.38;10.60;;;19.50;99.90;;;;;;5054002;28;20024;-74
2022/07/04 08:22:59;;;;;;;24.77;9.55;;;19.00;99.90;;;;;;5053647;28;20025;-74
2022/07/04 08:25:24;;;;;;;24.60;10.05;;;19.40;99.90;;;;;;5053726;28;20021;-74
2022/07/04 08:27:50;;;;;;;27.02;11.00;;;19.80;99.90;;;;;;5035911;28;20036;-75
2022/07/04 08:30:16;;;;;;;25.75;11.07;;;20.30;99.90;;;;;;5039731;28;20021;-74
2022/07/04 08:32:42;;;;;;;33.17;13.90;;;20.50;99.90;;;;;;5053532;28;20036;-74
2022/07/04 08:35:08;;;;;;;35.38;13.25;;;19.90;99.90;;;;;;5053386;28;20014;-74
2022/07/04 08:37:33;;;;;;;27.20;12.65;;;19.80;99.90;;;;;;5053595;28;20037;-74
2022/07/04 08:39:59;;;;;;;31.75;12.02;;;19.80;99.90;;;;;;5053453;28;20033;-74
2022/07/04 08:42:28;;;;;;;28.88;10.95;;;19.90;99.90;;;;;;5035788;28;20033;-74
2022/07/04 08:44:57;;;;;;;31.75;9.70;;;19.90;99.90;;;;;;5053649;28;20484;-74
2022/07/04 08:47:24;;;;;;;21.98;9.23;;;20.30;99.90;;;;;;5053339;28;20090;-74
2022/07/04 08:50:01;;;;;;;26.48;8.73;;;20.80;99.90;;;;;;5035563;28;20028;-75
2022/07/04 08:52:42;;;;;;;25.67;9.23;;;21.00;99.90;;;;;;5053083;28;20511;-74
2022/07/04 09:00:40;;;;;;;17.33;6.32;;;21.00;99.90;;;;;;5052681;28;20029;-75
2022/07/04 09:03:06;;;;;;;15.98;6.43;;;21.00;99.90;;;;;;5053371;28;20053;-74
2022/07/04 09:05:34;;;;;;;24.67;6.93;;;20.90;99.90;;;;;;5035011;28;20033;-74
2022/07/04 09:08:01;;;;;;;15.18;8.02;;;21.30;99.90;;;;;;5053111;28;20024;-75
2022/07/04 09:10:27;;;;;;;22.88;6.15;;;21.40;99.90;;;;;;5052524;28;20047;-75
2022/07/04 09:12:53;;;;;;;16.98;5.28;;;21.40;99.90;;;;;;5052837;28;20021;-75
2022/07/04 09:15:19;;;;;;;23.90;7.07;;;21.80;99.90;;;;;;5052838;28;20159;-75
2022/07/04 09:17:46;;;;;;;19.35;6.88;;;21.60;99.90;;;;;;5051924;28;20024;-75
2022/07/04 09:20:13;;;;;;;16.05;6.63;;;20.90;99.90;;;;;;5039962;28;20095;-74
2022/07/04 09:22:39;;;;;;;16.95;4.68;;;20.80;99.90;;;;;;5052799;28;20029;-74
2022/07/04 09:25:06;;;;;;;21.17;4.85;;;21.10;99.90;;;;;;5052797;28;20100;-74
2022/07/04 09:27:37;;;;;;;11.23;4.13;;;21.00;99.90;;;;;;5052780;28;20041;-74
2022/07/04 09:30:04;;;;;;;15.45;6.40;;;21.20;99.90;;;;;;5051311;28;20104;-75
2022/07/04 09:32:39;;;;;;;23.90;4.90;;;21.30;99.90;;;;;;5052564;28;20044;-75
2022/07/04 09:35:15;;;;;;;15.70;4.22;;;21.40;99.90;;;;;;5052772;28;20028;-74
2022/07/04 09:37:47;;;;;;;11.82;3.38;;;21.40;99.90;;;;;;5052751;28;20028;-74
2022/07/04 09:40:25;;;;;;;15.57;4.40;;;21.40;99.90;;;;;;5034603;28;20033;-74
2022/07/04 09:42:51;;;;;;;17.30;5.07;;;21.60;99.90;;;;;;5052669;28;20082;-74
2022/07/04 09:45:17;;;;;;;19.67;5.00;;;21.60;99.90;;;;;;5052336;28;20104;-75
2022/07/04 09:47:45;;;;;;;10.77;4.70;;;21.70;99.90;;;;;;5052449;28;20119;-75
2022/07/04 09:50:16;;;;;;;18.52;5.80;;;22.00;99.90;;;;;;5052466;28;20025;-74
2022/07/04 09:52:46;;;;;;;9.38;4.15;;;21.80;99.90;;;;;;5052179;28;20041;-74
2022/07/04 09:55:12;;;;;;;13.85;3.92;;;21.60;99.90;;;;;;5034651;28;20029;-75
2022/07/04 09:57:43;;;;;;;12.82;3.67;;;21.90;99.90;;;;;;5034476;28;20024;-75
2022/07/04 10:00:26;;;;;;;11.13;3.72;;;22.20;99.90;;;;;;5034887;28;20108;-74
2022/07/04 10:02:54;;;;;;;8.70;2.97;;;22.10;99.90;;;;;;5040836;28;20032;-75
2022/07/04 10:05:22;;;;;;;7.93;3.22;;;22.00;99.90;;;;;;5052141;28;20025;-75
2022/07/04 10:07:49;;;;;;;11.95;4.53;;;22.50;99.90;;;;;;5052333;28;20423;-75
2022/07/04 10:10:35;;;;;;;12.32;3.90;;;23.00;99.90;;;;;;5052110;28;20071;-75
2022/07/04 10:13:04;;;;;;;9.18;3.17;;;23.80;99.90;;;;;;5035506;28;20105;-74
2022/07/04 10:15:37;;;;;;;10.90;4.55;;;23.40;99.90;;;;;;5046472;28;20033;-75
2022/07/04 10:18:04;;;;;;;10.75;2.72;;;23.60;99.90;;;;;;5017851;28;20056;-75
2022/07/04 10:20:30;;;;;;;8.95;2.92;;;23.80;99.90;;;;;;5034209;28;20473;-74
2022/07/04 10:22:57;;;;;;;11.52;3.50;;;22.80;99.90;;;;;;5034452;28;20029;-74
2022/07/04 10:25:23;;;;;;;8.70;3.35;;;22.80;99.90;;;;;;5052333;28;20025;-75
2022/07/04 10:27:51;;;;;;;11.73;4.75;;;22.70;99.90;;;;;;5051942;28;20033;-74
2022/07/04 10:30:27;;;;;;;10.90;4.00;;;22.40;99.90;;;;;;5051877;28;20043;-75
2022/07/04 10:32:56;;;;;;;6.85;2.60;;;22.90;99.90;;;;;;5052078;28;20078;-74
2022/07/04 10:36:11;;;;;;;7.70;3.13;;;23.20;99.90;;;;;;5052042;28;20029;-74
2022/07/04 10:38:47;;;;;;;14.63;2.80;;;23.50;99.90;;;;;;5029198;28;20455;-74
2022/07/04 10:41:13;;;;;;;11.48;3.78;;;23.80;99.40;;;;;;5052734;28;20033;-75
2022/07/04 10:43:48;;;;;;;9.40;2.50;;;24.40;98.10;;;;;;5055549;28;20480;-75
2022/07/04 10:46:14;;;;;;;6.15;2.55;;;24.40;98.60;;;;;;5055623;28;20032;-75
2022/07/04 10:48:54;;;;;;;10.02;2.30;;;24.50;97.00;;;;;;5037560;28;20033;-74
2022/07/04 10:51:43;;;;;;;9.57;2.50;;;24.20;96.30;;;;;;5055701;28;20184;-74
2022/07/04 10:54:10;;;;;;;9.15;3.25;;;23.80;97.50;;;;;;5042086;28;20025;-74
2022/07/04 10:56:39;;;;;;;10.38;2.90;;;23.30;99.80;;;;;;5055297;28;20029;-74
2022/07/04 10:59:12;;;;;;;7.30;2.53;;;22.90;99.00;;;;;;5037541;28;20040;-75
2022/07/04 11:01:37;;;;;;;7.90;2.67;;;22.80;99.90;;;;;;5021070;28;20128;-75
2022/07/04 11:04:03;;;;;;;11.35;3.33;;;23.40;99.90;;;;;;5037199;28;20028;-74
2022/07/04 11:06:36;;;;;;;9.13;3.40;;;23.60;99.30;;;;;;5037579;28;20029;-75
2022/07/04 11:09:22;;;;;;;8.15;2.70;;;23.70;99.30;;;;;;5054964;28;20084;-74
2022/07/04 11:11:56;;;;;;;10.25;3.03;;;23.90;98.30;;;;;;5054698;28;20389;-74
2022/07/04 11:14:43;;;;;;;8.43;2.95;;;24.40;98.20;;;;;;5054957;28;20047;-75
2022/07/04 11:17:20;;;;;;;7.50;1.90;;;24.30;97.80;;;;;;5055256;28;20029;-74
2022/07/04 11:19:46;;;;;;;11.32;2.92;;;24.10;97.10;;;;;;5052466;28;20496;-74
2022/07/04 11:22:20;;;;;;;8.70;2.55;;;24.00;96.30;;;;;;5054999;28;20044;-75
2022/07/04 11:24:46;;;;;;;10.05;3.38;;;24.10;96.90;;;;;;5036746;28;20980;-74
2022/07/04 11:27:12;;;;;;;8.25;2.50;;;24.40;96.00;;;;;;5055159;28;20468;-74
2022/07/04 11:29:38;;;;;;;7.78;2.30;;;23.70;96.40;;;;;;5054573;28;20013;-74
2022/07/04 11:32:07;;;;;;;8.73;2.53;;;23.90;98.10;;;;;;5054894;28;20044;-74
2022/07/04 11:34:33;;;;;;;7.25;2.13;;;24.80;95.80;;;;;;5054799;28;20107;-74
2022/07/04 11:37:01;;;;;;;8.60;2.63;;;24.70;95.40;;;;;;5054740;28;20120;-75
2022/07/04 11:39:27;;;;;;;6.75;2.72;;;25.00;95.60;;;;;;5054144;28;20044;-74
2022/07/04 11:47:40;;;;;;;8.07;3.30;;;25.10;95.30;;;;;;5046084;28;20033;-75
2022/07/04 11:50:11;;;;;;;7.32;2.80;;;24.30;96.10;;;;;;5054516;28;20059;-74
2022/07/04 11:52:37;;;;;;;;;;;24.20;96.60;;;;;;5054016;28;20163;-75
2022/07/04 11:55:04;;;;;;;9.63;2.72;;;24.60;95.80;;;;;;5054070;28;19947;-74
2022/07/04 11:57:34;;;;;;;7.35;3.45;;;25.40;95.40;;;;;;5036595;28;20029;-75
2022/07/04 12:00:10;;;;;;;6.97;2.78;;;26.00;95.00;;;;;;5054619;28;20025;-74
2022/07/04 12:02:36;;;;;;;7.68;2.53;;;24.50;94.10;;;;;;5054397;28;20031;-74
2022/07/04 12:05:05;;;;;;;8.57;2.47;;;24.80;94.60;;;;;;5054380;28;20036;-74
2022/07/04 12:07:33;;;;;;;6.82;2.30;;;25.40;93.60;;;;;;5054085;28;20100;-74
2022/07/04 12:10:10;;;;;;;10.07;3.63;;;25.30;94.50;;;;;;5053667;28;20064;-74
2022/07/04 12:12:49;;;;;;;13.23;4.00;;;24.90;97.40;;;;;;5054056;28;20029;-74
2022/07/04 12:15:15;;;;;;;11.88;3.05;;;25.10;97.20;;;;;;5054158;28;20108;-75
2022/07/04 12:17:41;;;;;;;11.35;2.97;;;25.00;97.90;;;;;;5053953;28;20053;-74
2022/07/04 12:20:12;;;;;;;8.02;2.95;;;25.10;96.90;;;;;;5036456;28;20025;-74
2022/07/04 12:22:43;;;;;;;10.38;3.53;;;25.00;98.60;;;;;;5053691;28;20420;-75
2022/07/04 12:25:32;;;;;;;10.52;3.08;;;25.30;97.80;;;;;;5053754;28;20029;-75
2022/07/04 12:28:00;;;;;;;10.27;3.20;;;24.90;97.70;;;;;;5053960;28;20107;-75
2022/07/04 12:30:30;;;;;;;11.07;3.58;;;25.40;98.00;;;;;;5053482;28;20029;-75
2022/07/04 12:33:04;;;;;;;12.98;4.25;;;25.00;96.80;;;;;;5053906;28;20044;-76
2022/07/04 12:35:38;;;;;;;9.10;3.10;;;25.60;97.30;;;;;;5040756;28;20401;-76
2022/07/04 12:38:12;;;;;;;10.85;4.32;;;25.70;96.90;;;;;;5019325;28;20037;-75
2022/07/04 12:40:52;;;;;;;9.20;3.55;;;25.90;95.70;;;;;;5053503;28;20029;-75
2022/07/04 12:43:19;;;;;;;8.52;3.63;;;25.80;96.40;;;;;;5053292;28;20082;-75
2022/07/04 12:45:47;;;;;;;5.95;3.25;;;26.10;96.30;;;;;;5053509;28;20106;-75
2022/07/04 12:48:25;;;;;;;8.48;3.13;;;26.20;95.40;;;;;;5053423;28;20419;-75
2022/07/04 12:50:52;;;;;;;8.27;2.90;;;25.80;95.80;;;;;;5040703;28;20037;-74
2022/07/04 12:53:18;;;;;;;10.88;3.53;;;26.40;96.10;;;;;;5053168;28;20123;-74
2022/07/04 12:55:45;;;;;;;12.50;3.38;;;25.80;95.00;;;;;;5053224;28;20021;-74
2022/07/04 12:58:12;;;;;;;9.50;3.70;;;26.30;94.90;;;;;;5053395;28;20041;-75
2022/07/04 13:00:39;;;;;;;7.63;3.03;;;26.60;93.90;;;;;;5053030;28;20020;-75
2022/07/04 13:03:04;;;;;;;9.50;3.60;;;26.70;94.60;;;;;;5053301;28;20024;-75
2022/07/04 13:05:33;;;;;;;9.10;3.22;;;27.00;94.20;;;;;;5052706;28;20423;-74
2022/07/04 13:07:58;;;;;;;7.75;2.78;;;27.30;94.70;;;;;;5052995;28;20021;-75
2022/07/04 13:10:24;;;;;;;8.70;3.05;;;27.80;93.00;;;;;;5052503;28;20040;-75
2022/07/04 13:12:50;;;;;;;8.38;3.35;;;28.40;93.10;;;;;;5035166;28;20365;-77
2022/07/04 13:15:16;;;;;;;9.93;2.85;;;28.60;93.00;;;;;;5035362;28;20104;-77
2022/07/04 13:17:42;;;;;;;11.55;3.22;;;27.80;93.70;;;;;;5052666;28;20112;-77
2022/07/04 13:20:09;;;;;;;7.78;3.58;;;27.10;93.30;;;;;;5053110;28;20029;-77